Thursday, August 25, 2016, 5:51 PM EDT

KPOU, Poughkeepsie Dutchess Cty

Location: Wappingers Falls, NY, United States Lat: 41.633
Local Time: 5:51 PM EDT (21:51 GMT) Lon: -73.883
Time Zone: US/Eastern Elev: 167 ft

Show me the last for .
Show Decoded

2016-08-25 16:53 METAR KPOU 252053Z 00000KT 10SM OVC040 26/21 A2998 RMK AO2 RAB1957E34 SLP148
                 P0001 60001 T02560206 56010 =
2016-08-25 15:53 METAR KPOU 251953Z 19003KT 10SM OVC039 27/19 A2999 RMK AO2 RAB43E52 SLP150 P0000
                 T02670194 =
2016-08-25 14:53 METAR KPOU 251853Z 19007KT 10SM SCT042 OVC050 28/20 A2999 RMK AO2 SLP151
                 T02830200 =
2016-08-25 13:53 METAR KPOU 251753Z 17012G20KT 10SM SCT038 28/19 A3001 RMK AO2 SLP158 T02830194
                 56018 =
2016-08-25 12:53 METAR KPOU 251653Z 18010G16KT 10SM FEW032 28/19 A3003 RMK AO2 SLP163 T02780194 =
2016-08-25 11:53 METAR KPOU 251553Z 17007KT 130V190 10SM CLR 27/19 A3005 RMK AO2 SLP171 T02670194
                 =
2016-08-25 10:53 METAR KPOU 251453Z VRB06KT 10SM FEW040 27/19 A3006 RMK AO2 SLP176 T02670189
                 56014 $ =
2016-08-25 09:53 METAR KPOU 251353Z 23005KT 10SM CLR 26/17 A3007 RMK AO2 SLP178 T02560172 $ =
2016-08-25 08:53 METAR KPOU 251253Z 21005KT 10SM CLR 24/18 A3009 RMK AO2 SLP186 T02390178 $ =
2016-08-25 07:53 METAR KPOU 251153Z 15003KT 10SM CLR 21/17 A3011 RMK AO2 SLP190 T02060172 10211
                 20167 56000 $ =
2016-08-25 06:53 METAR KPOU 251053Z 00000KT 10SM CLR 18/16 A3011 RMK AO2 SLP190 T01780156 $ =
2016-08-25 05:53 METAR KPOU 250953Z AUTO 00000KT 10SM CLR 18/16 A3010 RMK AO2 SLP188 T01780156 $
                 =
2016-08-25 04:53 METAR KPOU 250853Z AUTO 00000KT 10SM CLR 18/16 A3011 RMK AO2 SLP190 T01830161
                 56002 $ =
2016-08-25 03:53 METAR KPOU 250753Z AUTO 00000KT 10SM CLR 18/16 A3011 RMK AO2 SLP191 T01830161 $
                 =
2016-08-25 02:53 METAR KPOU 250653Z AUTO 13004KT 10SM CLR 19/17 A3010 RMK AO2 SLP189 T01890172 $
                 =
2016-08-25 01:53 METAR KPOU 250553Z AUTO 17003KT 10SM CLR 21/17 A3011 RMK AO2 SLP193 T02110172
                 10250 20200 58011 PWINO $ =
2016-08-25 00:53 METAR KPOU 250453Z AUTO 00000KT 10SM CLR 22/17 A3013 RMK AO2 SLP198 T02220172
                 403060139 PWINO $ =
2016-08-24 23:53 METAR KPOU 250353Z AUTO 16004KT 10SM CLR 22/17 A3015 RMK AO2 SLP204 T02220172
                 PWINO $ =
2016-08-24 22:53 METAR KPOU 250253Z AUTO 15003KT 10SM CLR 23/17 A3015 RMK AO2 SLP204 T02280172
                 51003 PWINO $ =
2016-08-24 21:53 METAR KPOU 250153Z 00000KT 10SM CLR 22/18 A3015 RMK AO2 SLP204 T02170178 $ =
2016-08-24 20:53 METAR KPOU 250053Z 00000KT 10SM CLR 23/18 A3014 RMK AO2 SLP201 T02280183 =
2016-08-24 19:53 METAR KPOU 242353Z 00000KT 10SM CLR 26/18 A3014 RMK AO2 SLP201 T02560178 10306
                 20250 56004 =
2016-08-24 18:53 METAR KPOU 242253Z 19003KT 10SM CLR 29/16 A3014 RMK AO2 SLP202 T02890161 =
2016-08-24 17:53 METAR KPOU 242153Z 18005KT 10SM CLR 30/17 A3014 RMK AO2 SLP202 T03000167 =

Support USWX by starting your Amazon purchase here.